Blowing Sand Mountains, Nevada Weather observations

Data are for observation ending at time listed.
 Day   Time    Ave.   Ave.  Ave.  Vector   Max.   Stn.    Total    Solar   Ave.  
  of    of     Air    Rel.  Wind   Wind    Wind   Baro.  Precip.   Rad.    Soil  
Year   Day     Temp.  Hum.  Speed  Dir.    Gust   Pres.                    Temp. 
2016   (PST)    F      %     mph   deg.    mph     mb.     in.     W/m2     F   
------------------------------------------------------------------------------
 178   10:30   88.6     6    2.2   250      7.7    883.5     0.00    1002     72.1
 178   10:40   89.0     6    4.5   296      8.9    883.4     0.00    1013     72.1
 178   10:50   89.5     6    4.9   264      8.5    883.3     0.00    1024     72.1
 178   11:00   89.9     6    5.3   289     12.3    883.3     0.00    1034     72.1
 178   11:10   90.6     6    6.5   301     11.5    883.3     0.00    1039     72.1
 178   11:20   90.7     6    3.0   276     10.2    883.2     0.00    1047     72.0
 178   11:30   91.3     6    5.4   265     10.0    883.1     0.00    1050     72.0
 178   11:40   92.1     6    5.2   301      9.2    883.1     0.00    1056     72.0
 178   11:50   93.5     6    3.1   324     17.1    883.0     0.00    1063     72.0
 178   12:00   93.2     6    5.1   319     11.2    882.9     0.00    1063     72.1
 178   12:10   93.9     6    3.6    51     10.0    882.7     0.00    1062     72.0
 178   12:20   96.4     5    4.1   169      8.8    882.6     0.00    1060     72.0
 178   12:30   96.6     5    2.5   118      7.6    882.5     0.00    1056     72.1
 178   12:40   95.2     5    4.3    92      8.9    882.3     0.00    1053     72.1
 178   12:50   96.0     5    3.6   262     11.5    882.2     0.00    1045     72.1
 178   13:00   95.0     5    6.5   286     11.8    882.1     0.00    1037     72.2
 178   13:10   95.4     5    6.8   282     11.4    882.0     0.00    1028     72.2
 178   13:20   96.4     5    4.2   302      6.9    881.9     0.00    1013     72.2
 178   13:30   96.1     5    6.3   285     14.2    881.8     0.00     996     72.3
 178   13:40   96.5     5    5.2   347      9.6    881.7     0.00     984     72.4
 178   13:50   97.1     5    6.3   328     12.6    881.6     0.00     968     72.4
 178   14:00   97.3     5    3.1   331      8.6    881.4     0.00     946     72.5
 178   14:10   97.6     5    5.4   291     11.4    881.3     0.00     929     72.5
 178   14:20   97.5     4    5.7   277     11.8    881.2     0.00     909     72.6
 178   14:30   97.2     5    3.7   314      8.3    881.2     0.00     886     72.6
 178   14:40   97.8     5    5.4   278     11.2    881.1     0.00     857     72.7
 178   14:50   98.2     4    7.5   303     14.8    881.0     0.00     835     72.8
 178   15:00   98.1     4    5.5   301     13.4    880.9     0.00     805     72.8
 178   15:10   98.5     4    5.9   358     11.7    880.8     0.00     776     72.9
 178   15:20   98.1     4    3.6   319      8.6    880.6     0.00     750     73.0
 178   15:30   98.9     4    8.4   347     14.6    880.6     0.00     716     73.1
 178   15:40   98.3     4    7.2    12     14.5    880.5     0.00     687     73.1
 178   15:50   98.4     4    3.8    24      9.0    880.5     0.00     657     73.2
 178   16:00   98.4     4    5.7   332     11.7    880.5     0.00     626     73.3
 178   16:10   98.8     5   10.2   346     21.3    880.3     0.00     591     73.3
 178   16:20   98.2     5   12.2   349     19.6    880.4     0.00     567     73.5
 178   16:30   98.0     5   10.1   357     17.8    880.4     0.00     532     73.5
 178   16:40   97.7     5   10.5    13     17.3    880.4     0.00     496     73.6
 178   16:50   97.7     5    8.9     7     15.6    880.4     0.00     458     73.7
 178   17:00   97.5     5    7.7    15     11.8    880.4     0.00     427     73.8
 178   17:10   97.3     5    9.0   358     13.2    880.5     0.00     395     73.9
 178   17:20   97.4     5    7.9     8     12.3    880.5     0.00     362     73.9
 178   17:30   97.6     5    7.4   358     12.4    880.5     0.00     329     74.0
 178   17:40   97.0     5    9.2   356     13.2    880.6     0.00     295     74.1
 178   17:50   96.7     5    7.3    10     12.4    880.7     0.00     171     74.2
 178   18:00   96.9     5    7.2   344     11.9    880.7     0.00     179     74.2
 178   18:10   96.6     5    8.6   344     11.6    880.8     0.00     161     74.4
 178   18:20   96.3     5    8.1     1     12.8    880.8     0.00     166     74.4
 178   18:30   95.5     5   10.3    10     15.3    880.9     0.00     145     74.5
 178   18:40   95.0     5    8.0    10     11.0    881.0     0.00     116     74.6
 178   18:50   94.5     5    8.2   359     12.1    881.1     0.00      81     74.7
 178   19:00   93.6     6    5.5    10      8.4    881.2     0.00      49     74.8
 178   19:10   92.1     6    4.4   352      6.3    881.2     0.00      25     74.9
 178   19:20   90.2     7    5.6   321     10.4    881.4     0.00      11     74.9
 178   19:30   90.1     7    8.3   324     13.6    881.6     0.00       6     75.0
 178   19:40   89.4     8    6.6   318     13.3    881.8     0.00       2     75.1
 178   19:50   87.3     8    4.8   321      7.9    881.9     0.00       1     75.2
 178   20:00   86.4     9    4.6   320      6.6    882.1     0.00       0     75.3
 178   20:10   85.6     9    4.9   316      8.5    882.1     0.00       0     75.3
 178   20:20   86.1     9    6.7   319     11.0    882.3     0.00       0     75.3
 178   20:30   86.0     8    7.3   322     12.3    882.5     0.00       0     75.4
 178   20:40   86.6     8    8.1   328     13.2    882.7     0.00       0     75.4
 178   20:50   85.4     8    6.0   343     10.0    882.9     0.00       0     75.5
 178   21:00   84.5     9    6.1   344      9.8    883.0     0.00       0     75.5
 178   21:10   84.7    10    8.2   342     11.3    883.1     0.00       0     75.6
 178   21:20   84.3    11    9.3   340     14.1    883.1     0.00       0     75.6
 178   21:30   84.4    11   10.7   345     15.0    883.1     0.00       0     75.6
 178   21:40   84.3    11   10.4   342     15.7    883.2     0.00       0     75.7
 178   21:50   83.4    11    8.4   348     13.5    883.3     0.00       0     75.7
 178   22:00   82.9    11    7.6   341     10.4    883.3     0.00       0     75.7
 178   22:10   82.4    12    6.6   333      9.6    883.3     0.00       0     75.8
 178   22:20   81.5    12    4.6   317      7.1    883.3     0.00       0     75.8
 178   22:30   80.5    12    3.1   334      4.3    883.5     0.00       0     75.8
 178   22:40   80.3    12    3.0    29      4.5    883.6     0.00       0     75.8
 178   22:50   80.2    12    3.5     6      5.8    883.6     0.00       0     75.8
 178   23:00   80.3    12    5.3   332     10.3    883.6     0.00       0     75.9
 178   23:10   81.0    12    7.4   333     13.4    883.6     0.00       0     75.9
 178   23:20   80.7    12    6.4   333     10.2    883.6     0.00       0     75.9
 178   23:30   77.7    13    2.4   145      5.8    883.7     0.00       0     75.9
 178   23:40   73.6    15    4.7   127     10.2    883.8     0.00       0     75.9
 178   23:50   76.5    14    5.0   114      9.6    883.8     0.00       0     75.9
 179    0:00   76.2    14    4.3    96      7.2    883.9     0.00       0     75.9
 179    0:10   76.7    14    2.6    71      5.3    883.9     0.00       0     75.9
 179    0:20   76.5    14    0.9    76      4.6    884.0     0.00       0     75.9
 179    0:30   74.2    15    2.2    30     10.4    884.1     0.00       0     75.9
 179    0:40   77.2    14    5.1    41      9.4    884.2     0.00       0     75.9
 179    0:50   74.6    15    1.1    80      7.1    884.2     0.00       0     75.9
 179    1:00   74.7    15    3.8     8      7.5    884.2     0.00       0     75.8
 179    1:10   75.0    15    3.0   296      5.8    884.2     0.00       0     75.8
 179    1:20   69.2    18    1.5   253      6.2    884.2     0.00       0     75.8
 179    1:30   65.4    20    3.7   188      5.7    884.3     0.00       0     75.8
 179    1:40   64.3    21    3.7   157      5.2    884.4     0.00       0     75.8
 179    1:50   65.0    21    0.9   130      3.6    884.4     0.00       0     75.8
 179    2:00   64.6    21    0.0     0      0.0    884.5     0.00       0     75.8
 179    2:10   63.1    22    0.0     0      0.0    884.5     0.00       0     75.8
 179    2:20   63.4    23    0.5    92      4.5    884.5     0.00       0     75.8
 179    2:30   62.6    22    0.0     0      0.0    884.6     0.00       0     75.7
 179    2:40   59.3    24    0.0     0      0.0    884.6     0.00       0     75.7
 179    2:50   58.7    25    0.4   261      4.9    884.7     0.00       0     75.7
 179    3:00   57.8    25    0.4   245      3.9    884.7     0.00       0     75.6
 179    3:10   56.3    26    1.5   140      4.6    884.8     0.00       0     75.6
 179    3:20   57.1    26    2.4   133      4.0    884.8     0.00       0     75.6
 179    3:30   57.6    26    0.0     0      0.0    884.8     0.00       0     75.5
 179    3:40   57.1    26    0.9    53      5.1    884.8     0.00       0     75.5
 179    3:50   56.9    27    0.4   155      2.9    884.8     0.00       0     75.5
 179    4:00   57.0    27    0.0     0      0.0    884.9     0.00       0     75.5
 179    4:10   56.6    28    1.1   138      4.6    884.9     0.00       0     75.4
 179    4:20   56.4    28    0.7   131      3.7    885.0     0.00       1     75.4
 179    4:30   55.8    29    0.0     0      0.0    885.1     0.00       2     75.3
 179    4:40   54.9    28    0.7    41      3.7    885.2     0.00       6     75.3
 179    4:50   54.6    29    0.8    58      3.1    885.3     0.00      12     75.3
 179    5:00   56.3    28    1.3    69      3.7    885.3     0.00      29     75.2
 179    5:10   56.9    28    0.0     0      0.0    885.3     0.00      57     75.2
 179    5:20   57.8    27    0.1   337      2.5    885.4     0.00      88     75.1
 179    5:30   57.7    27    0.4   347      2.6    885.5     0.00     122     75.0
 179    5:40   59.1    27    0.0     0      0.0    885.6     0.00     151     74.9
 179    5:50   61.5    25    0.0     0      0.0    885.6     0.00     180     74.9
 179    6:00   63.6    23    0.0     0      0.0    885.6     0.00     211     74.8
 179    6:10   64.9    23    0.0     0      0.0    885.7     0.00     245     74.8
 179    6:20   66.1    22    0.0     0      0.0    885.7     0.00     280     74.7
 179    6:30   68.7    21    0.0     0      0.0    885.7     0.00     313     74.7
 179    6:40   69.5    20    0.0     0      0.0    885.7     0.00     348     74.6
 179    6:50   70.3    19    0.2   249      1.8    885.7     0.00     381     74.6
 179    7:00   70.8    19    0.0     0      0.0    885.7     0.00     417     74.5
 179    7:10   72.1    18    0.0     0      0.0    885.7     0.00     451     74.4
 179    7:20   73.8    17    0.0     0      0.0    885.7     0.00     485     74.4
 179    7:30   76.0    16    0.0     0      0.0    885.8     0.00     520     74.3
 179    7:40   80.1    14    0.0    68      1.1    885.7     0.00     553     74.3
 179    7:50   82.8    13    0.0    44      0.4    885.7     0.00     585     74.2
 179    8:00   85.0    12    0.0     0      0.0    885.7     0.00     618     74.2
 179    8:10   85.8    12    0.0     0      0.0    885.6     0.00     648     74.1
 179    8:20   85.4    12    0.0   339      2.0    885.5     0.00     682     74.1
 179    8:30   86.1    11    0.5     5      4.0    885.4     0.00     714     74.0
 179    8:40   87.0    11    0.6   359      3.1    885.4     0.00     742     74.0
 179    8:50   87.9    11    1.5   301      4.8    885.3     0.00     771     74.0
 179    9:00   86.9    11    3.1   299      6.9    885.2     0.00     801     73.9
 179    9:10   87.6    11    1.2   309      6.1    885.2     0.00     828     73.8
 179    9:20   89.0    11    1.7   311      7.8    885.2     0.00     853     73.8
 179    9:30   88.0    11    2.3   284      6.5    885.1     0.00     878     73.8
 179    9:40   88.5    11    2.8   346      7.5    885.0     0.00     902     73.7
 179    9:50   88.9    10    2.0   244      5.5    885.0     0.00     925     73.7
 179   10:00   89.8    10    2.9   359      7.4    884.9     0.00     947     73.7
 179   10:10   90.4     9    1.0   321      4.7    885.0     0.00     964     73.6
 179   10:20   92.8     8    1.1    32      6.7    884.9     0.00     981     73.6

Return to Blowing Sand Mountains graphs page.


Western Regional Climate Center,wrcc@dri.edu